Accueil
METAR-TAF:

METAR-TAF

Aéroports :

Tongatapu, Tonga

Aéroport international Fuaʻamotu

latitude: 21-14S, longitude: 175-09W, altitude: 38 m

Observation

Le bulletin a été fait il y a 1 heure et 6 minutes, à 06:00 UTC
Vent calme
Température 22°C
Humidité 73%
Pression 1016 hPa
Visibilité 10 km ou plus
Nuages épars à une hauteur de 1600 ft

METAR: NFTF 270600Z 00000KT 9999 SCT016 22/17 Q1016

Heure: 20:06 (07:06 UTC)

Prévision

Le bulletin a été fait il y a 1 heure et 46 minutes, à 05:20 UTC
Prévision valable du 27 à 06 UTC au 28 à 06 UTC
Vent 3 kt de direction variable
Visibilité 10 km ou plus
Quelques nuages à une hauteur de 1000 ft
Nuages épars à une hauteur de 1600 ft

TAF: NFTF 270520Z 2706/2806 VRB03KT 9999 FEW010 SCT016

Observations et prévisions météorologiques de plus de 4000 aéroports (messages METAR et TAF).

Les stations disponibles sont représentées par des disques jaunes et rouges sur la carte.

Passer la souris dessus pour voir le nom de la station.

Cliquer dessus pour voir les observations et prévisions météorologiques.

Pour changer de carte: cliquez sur les boutons verts avec une croix noire pour zoomer, sur le bouton vert avec un tiret pour effectuer un zoom arrière, ou sur les flèches vertes pour les cartes adjacentes.


METAR-TAF: